createdAt,value
2019-02-27T00:01:28.808Z,100844.92
2019-02-27T00:03:59.862Z,100843.86
2019-02-27T00:06:30.509Z,100842.81
2019-02-27T00:09:01.145Z,100828.42
2019-02-27T00:11:30.865Z,100814.88
2019-02-27T00:14:00.251Z,100804.98
2019-02-27T00:16:29.655Z,100805.22
2019-02-27T00:18:59.529Z,100800.70
2019-02-27T00:21:28.949Z,100794.79
2019-02-27T00:23:58.369Z,100793.65
2019-02-27T00:26:28.228Z,100776.63
2019-02-27T00:28:57.657Z,100766.48
2019-02-27T00:31:27.394Z,100770.81
2019-02-27T00:33:59.962Z,100762.03
2019-02-27T00:36:28.588Z,100750.71
2019-02-27T00:38:58.554Z,100687.00
2019-02-27T00:41:28.848Z,100750.19
2019-02-27T00:44:01.049Z,100748.97
2019-02-27T00:46:29.462Z,100742.42
2019-02-27T00:48:59.332Z,100740.06
2019-02-27T00:51:30.281Z,100727.72
2019-02-27T00:53:59.684Z,100725.40
2019-02-27T00:56:29.033Z,100717.25
2019-02-27T00:59:00.205Z,100706.98
2019-02-27T01:01:30.707Z,100579.08
2019-02-27T01:04:02.406Z,100702.67
2019-02-27T01:06:31.514Z,100685.66
2019-02-27T01:09:00.878Z,100688.66
2019-02-27T01:11:30.270Z,100683.75
2019-02-27T01:14:03.916Z,100679.56
2019-02-27T01:16:31.113Z,100662.19
2019-02-27T01:19:02.264Z,100668.25
2019-02-27T01:21:32.178Z,100652.54
2019-02-27T01:24:01.565Z,100653.33
2019-02-27T01:26:32.176Z,100639.45
2019-02-27T01:29:01.544Z,100631.91
2019-02-27T01:31:31.344Z,100629.57
2019-02-27T01:34:01.550Z,100622.42
2019-02-27T01:36:30.921Z,100619.48
2019-02-27T01:39:00.849Z,100615.16
2019-02-27T01:41:31.645Z,100591.82
2019-02-27T01:44:00.986Z,100590.13
2019-02-27T01:46:30.453Z,100588.75
2019-02-27T01:48:59.952Z,100587.58
2019-02-27T01:51:29.295Z,100573.31
2019-02-27T01:53:58.703Z,100572.24
2019-02-27T01:56:29.093Z,100561.45
2019-02-27T01:58:59.065Z,100554.03
2019-02-27T02:01:30.277Z,100557.52
2019-02-27T02:03:59.642Z,100537.94
2019-02-27T02:06:32.008Z,100540.81
2019-02-27T02:09:30.316Z,100535.95
2019-02-27T02:11:59.826Z,100535.72
2019-02-27T02:14:59.518Z,100536.73
2019-02-27T02:18:03.886Z,100524.48
2019-02-27T02:21:06.831Z,100516.68
2019-02-27T02:24:13.261Z,100504.27
2019-02-27T02:27:08.248Z,100497.48
2019-02-27T02:30:29.741Z,100487.13
2019-02-27T02:33:29.066Z,100474.62
2019-02-27T02:36:34.739Z,100457.33
2019-02-27T02:39:40.491Z,100435.77
2019-02-27T02:42:46.151Z,100432.41
2019-02-27T02:45:21.458Z,100431.22
2019-02-27T02:48:18.503Z,100433.10
2019-02-27T02:51:49.660Z,100411.98
2019-02-27T02:54:40.583Z,100422.81
2019-02-27T02:57:40.612Z,100399.97
2019-02-27T03:00:39.028Z,100401.62
2019-02-27T03:03:35.941Z,100400.11
2019-02-27T03:06:39.919Z,100396.34
2019-02-27T03:09:44.699Z,100393.22
2019-02-27T03:12:42.697Z,100380.07
2019-02-27T03:15:28.868Z,100385.08
2019-02-27T03:18:29.612Z,100373.91
2019-02-27T03:21:39.385Z,100371.75
2019-02-27T03:24:42.559Z,100358.61
2019-02-27T03:27:49.248Z,100339.23
2019-02-27T03:31:18.478Z,100320.16
2019-02-27T03:34:22.265Z,100317.35
2019-02-27T03:37:13.431Z,100308.88
2019-02-27T03:40:29.707Z,100292.93
2019-02-27T03:43:26.593Z,100285.10
2019-02-27T03:46:15.278Z,100283.95
2019-02-27T03:49:27.180Z,100270.66
2019-02-27T03:52:43.185Z,100250.31
2019-02-27T03:56:00.899Z,100241.58
2019-02-27T03:59:32.027Z,100229.92
2019-02-27T04:02:33.001Z,100204.40
2019-02-27T04:05:27.128Z,100226.53
2019-02-27T04:08:59.449Z,100208.80
2019-02-27T04:11:30.557Z,100199.03
2019-02-27T04:14:05.047Z,100175.64
2019-02-27T04:16:32.552Z,100171.14
2019-02-27T04:19:04.535Z,100178.65
2019-02-27T04:21:33.265Z,100169.45
2019-02-27T04:24:02.610Z,100157.47
2019-02-27T04:26:32.025Z,100154.57
2019-02-27T04:29:04.035Z,100156.09
2019-02-27T04:31:32.958Z,100151.70
2019-02-27T04:34:02.729Z,100144.94
2019-02-27T04:36:32.466Z,100123.06
2019-02-27T04:39:02.541Z,100107.34
2019-02-27T04:41:32.520Z,100101.72
2019-02-27T04:44:05.040Z,100096.20
2019-02-27T04:46:32.970Z,100070.86
2019-02-27T04:49:04.848Z,100071.50
2019-02-27T04:51:33.535Z,100054.94
2019-02-27T04:54:06.266Z,100053.45
2019-02-27T04:56:34.944Z,100045.30
2019-02-27T04:59:04.437Z,100048.38
2019-02-27T05:01:36.669Z,100086.50
2019-02-27T05:04:05.277Z,100070.57
2019-02-27T05:06:34.797Z,100074.33
2019-02-27T05:09:05.867Z,100033.80
2019-02-27T05:11:35.408Z,100053.63
2019-02-27T05:14:04.819Z,100048.39
2019-02-27T05:16:34.322Z,100029.11
2019-02-27T05:19:04.124Z,100031.93
2019-02-27T05:21:34.020Z,100038.02
2019-02-27T05:24:05.287Z,100033.33
2019-02-27T05:26:34.701Z,100051.77
2019-02-27T05:29:04.191Z,100028.27
2019-02-27T05:31:33.604Z,100027.16
2019-02-27T05:34:03.018Z,100021.17
2019-02-27T05:36:32.490Z,100010.77
2019-02-27T05:39:02.006Z,100010.50
2019-02-27T05:41:33.183Z,100007.77
2019-02-27T05:44:02.540Z,100004.97
2019-02-27T05:46:32.176Z,99999.66
2019-02-27T05:49:01.692Z,100010.52
2019-02-27T05:51:31.078Z,100007.52
2019-02-27T05:54:01.688Z,100001.60
2019-02-27T05:56:31.402Z,100004.69
2019-02-27T05:59:00.938Z,99993.28
2019-02-27T06:01:30.313Z,99997.58
2019-02-27T06:04:00.020Z,99996.74
2019-02-27T06:06:29.506Z,100005.07
2019-02-27T06:08:58.882Z,99999.36
2019-02-27T06:11:29.585Z,99997.39
2019-02-27T06:14:00.586Z,99987.64
2019-02-27T06:16:29.970Z,99982.78
2019-02-27T06:18:59.587Z,99971.73
2019-02-27T06:21:29.059Z,99956.65
2019-02-27T06:23:58.533Z,99957.70
2019-02-27T06:26:32.212Z,99953.95
2019-02-27T06:28:59.759Z,99944.38
2019-02-27T06:31:29.238Z,99924.94
2019-02-27T06:33:59.091Z,99926.97
2019-02-27T06:36:29.750Z,99924.92
2019-02-27T06:39:00.407Z,99920.01
2019-02-27T06:41:30.326Z,99916.58
2019-02-27T06:44:01.588Z,99918.23
2019-02-27T06:46:30.899Z,99916.13
2019-02-27T06:49:01.229Z,99910.31
2019-02-27T06:51:30.631Z,99902.77
2019-02-27T06:54:00.039Z,99894.50
2019-02-27T06:56:29.393Z,99882.02
2019-02-27T06:58:59.636Z,99886.61
2019-02-27T07:01:29.185Z,99875.69
2019-02-27T07:03:58.693Z,99871.47
2019-02-27T07:06:28.880Z,99870.45
2019-02-27T07:08:58.602Z,99866.17
2019-02-27T07:11:28.268Z,99856.24
2019-02-27T07:13:58.559Z,99847.91
2019-02-27T07:16:27.936Z,99836.48
2019-02-27T07:18:57.436Z,99825.87
2019-02-27T07:21:32.350Z,99817.72
2019-02-27T07:23:59.214Z,99813.55
2019-02-27T07:26:28.638Z,99796.84
2019-02-27T07:28:58.180Z,99791.12
2019-02-27T07:31:29.192Z,99788.14
2019-02-27T07:33:58.889Z,99781.66
2019-02-27T07:36:28.441Z,99780.73
2019-02-27T07:38:58.293Z,99768.70
2019-02-27T07:41:27.814Z,99762.61
2019-02-27T07:43:57.311Z,99760.94
2019-02-27T07:46:27.556Z,99749.83
2019-02-27T07:48:57.439Z,99733.81
2019-02-27T07:51:26.896Z,99744.14
2019-02-27T07:53:57.515Z,99730.89
2019-02-27T07:56:27.232Z,99733.72
2019-02-27T07:58:56.743Z,99712.61
2019-02-27T08:01:26.120Z,99702.59
2019-02-27T08:03:57.236Z,99697.19
2019-02-27T08:06:26.900Z,99692.65
2019-02-27T08:08:57.144Z,99692.94
2019-02-27T08:11:27.212Z,99682.38
2019-02-27T08:13:56.676Z,99665.83
2019-02-27T08:16:26.156Z,99669.91
2019-02-27T08:18:55.584Z,99655.69
2019-02-27T08:21:24.969Z,99652.70
2019-02-27T08:23:55.182Z,99655.45
2019-02-27T08:26:24.765Z,99651.86
2019-02-27T08:29:03.648Z,99642.52
2019-02-27T08:31:33.530Z,99628.53
2019-02-27T08:34:03.146Z,99625.66
2019-02-27T08:36:32.646Z,99624.46
2019-02-27T08:39:02.405Z,99610.48
2019-02-27T08:41:32.186Z,99614.89
2019-02-27T08:44:01.747Z,99608.08
2019-02-27T08:46:34.047Z,99605.75
2019-02-27T08:49:02.636Z,99609.28
2019-02-27T08:51:31.993Z,99590.31
2019-02-27T08:54:01.820Z,99577.42
2019-02-27T08:56:31.168Z,99585.41
2019-02-27T08:59:05.048Z,99567.07
2019-02-27T09:01:32.185Z,99542.86
2019-02-27T09:04:01.717Z,99541.77
2019-02-27T09:06:31.095Z,99538.68
2019-02-27T09:09:00.749Z,99528.75
2019-02-27T09:11:30.230Z,99525.86
2019-02-27T09:13:59.722Z,99504.48
2019-02-27T09:16:29.179Z,99496.78
2019-02-27T09:18:58.632Z,99484.99
2019-02-27T09:21:28.613Z,99482.52
2019-02-27T09:23:58.239Z,99465.26
2019-02-27T09:26:27.721Z,99454.42
2019-02-27T09:28:57.236Z,99458.13
2019-02-27T09:31:26.695Z,99435.27
2019-02-27T09:33:56.129Z,99433.34
2019-02-27T09:36:26.819Z,99424.28
2019-02-27T09:38:57.614Z,99418.37
2019-02-27T09:41:27.379Z,99400.89
2019-02-27T09:43:58.678Z,99383.79
2019-02-27T09:46:27.927Z,99391.58
2019-02-27T09:48:57.549Z,99380.34
2019-02-27T09:51:27.042Z,99373.77
2019-02-27T09:53:56.400Z,99379.98
2019-02-27T09:56:26.101Z,99374.67
2019-02-27T09:58:57.477Z,99374.66
2019-02-27T10:01:26.840Z,99371.55
2019-02-27T10:03:56.217Z,99389.14
2019-02-27T10:06:25.917Z,99369.84
2019-02-27T10:08:56.459Z,99367.97
2019-02-27T10:11:26.483Z,99365.07
2019-02-27T10:13:56.236Z,99362.27
2019-02-27T10:16:25.641Z,99358.02
2019-02-27T10:18:55.888Z,99358.88
2019-02-27T10:21:25.269Z,99360.49
2019-02-27T10:23:54.691Z,99348.61
2019-02-27T10:26:24.170Z,99338.33
2019-02-27T10:28:53.547Z,99323.73
2019-02-27T10:31:25.911Z,99318.80
2019-02-27T10:33:54.276Z,99311.88
2019-02-27T10:36:24.696Z,99315.53
2019-02-27T10:38:54.967Z,99304.12
2019-02-27T10:41:24.334Z,99306.16
2019-02-27T10:43:53.962Z,99295.66
2019-02-27T10:46:24.967Z,99292.16
2019-02-27T10:48:54.539Z,99296.36
2019-02-27T10:51:24.019Z,99294.61
2019-02-27T10:53:53.411Z,99296.31
2019-02-27T10:56:24.239Z,99284.19
2019-02-27T10:58:54.345Z,99283.48
2019-02-27T11:01:23.999Z,99284.49
2019-02-27T11:03:54.627Z,99279.66
2019-02-27T11:06:33.517Z,99273.57
2019-02-27T11:08:55.234Z,99265.85
2019-02-27T11:11:24.856Z,99250.23
2019-02-27T11:13:55.400Z,99241.82
2019-02-27T11:16:25.080Z,99236.23
2019-02-27T11:18:54.486Z,99227.09
2019-02-27T11:21:24.166Z,99231.13
2019-02-27T11:23:53.653Z,99215.30
2019-02-27T11:26:23.013Z,99203.38
2019-02-27T11:28:52.450Z,99206.00
2019-02-27T11:31:22.292Z,99206.81
2019-02-27T11:33:52.025Z,99201.33
2019-02-27T11:36:21.464Z,99192.89
2019-02-27T11:38:50.925Z,99185.06
2019-02-27T11:41:20.340Z,99178.81
2019-02-27T11:43:49.858Z,99178.46
2019-02-27T11:46:20.106Z,99170.98
2019-02-27T11:48:49.487Z,99165.28
2019-02-27T11:51:20.182Z,99165.72
2019-02-27T11:53:52.427Z,99180.58
2019-02-27T11:56:22.272Z,99176.62
2019-02-27T11:58:51.607Z,99173.55
2019-02-27T12:01:22.160Z,99174.88
2019-02-27T12:03:52.423Z,99166.48
2019-02-27T12:06:21.798Z,99152.73
2019-02-27T12:08:51.247Z,99149.62
2019-02-27T12:11:20.672Z,99146.38
2019-02-27T12:13:50.065Z,99133.16
2019-02-27T12:16:19.520Z,99132.10
2019-02-27T12:18:48.878Z,99127.34
2019-02-27T12:21:18.239Z,99114.41
2019-02-27T12:23:47.839Z,99111.12
2019-02-27T12:26:17.191Z,99113.55
2019-02-27T12:28:47.545Z,99097.12
2019-02-27T12:31:17.130Z,99098.17
2019-02-27T12:33:46.599Z,99080.60
2019-02-27T12:36:18.609Z,99081.68
2019-02-27T12:38:47.094Z,99068.52
2019-02-27T12:41:16.572Z,99065.79
2019-02-27T12:43:46.187Z,99064.34
2019-02-27T12:46:16.360Z,99065.03
2019-02-27T12:48:46.453Z,99068.64
2019-02-27T12:51:16.728Z,99060.81
2019-02-27T12:53:46.170Z,99058.30
2019-02-27T12:56:15.575Z,99059.84
2019-02-27T12:58:44.942Z,99044.74
2019-02-27T13:01:16.368Z,99045.98
2019-02-27T13:03:45.722Z,99035.17
2019-02-27T13:06:15.089Z,99027.89
2019-02-27T13:08:44.842Z,99028.64
2019-02-27T13:11:14.427Z,99035.84
2019-02-27T13:13:43.900Z,99029.12
2019-02-27T13:16:14.577Z,99023.85
2019-02-27T13:18:46.481Z,99015.14
2019-02-27T13:21:20.135Z,98919.80
2019-02-27T13:23:47.252Z,99019.93
2019-02-27T13:26:16.633Z,99015.19
2019-02-27T13:28:48.800Z,99015.15
2019-02-27T13:31:17.416Z,99010.37
2019-02-27T13:33:46.848Z,99002.59
2019-02-27T13:36:16.545Z,98992.83
2019-02-27T13:38:56.738Z,98998.04
2019-02-27T13:41:26.548Z,98996.02
2019-02-27T13:43:58.183Z,98990.55
2019-02-27T13:46:27.070Z,98991.09
2019-02-27T13:48:56.606Z,98990.88
2019-02-27T13:51:26.156Z,98981.39
2019-02-27T13:54:00.308Z,98984.43
2019-02-27T13:56:27.548Z,98980.96
2019-02-27T13:58:57.671Z,98981.17
2019-02-27T14:01:28.562Z,98976.12
2019-02-27T14:03:58.204Z,98965.67
2019-02-27T14:06:28.353Z,98958.33
2019-02-27T14:08:57.824Z,98968.79
2019-02-27T14:11:27.424Z,98958.20
2019-02-27T14:13:56.967Z,98964.36
2019-02-27T14:16:26.396Z,98951.41
2019-02-27T14:18:55.880Z,98953.42
2019-02-27T14:21:25.404Z,98950.14
2019-02-27T14:23:54.889Z,98941.36
2019-02-27T14:26:25.435Z,98929.86
2019-02-27T14:28:55.129Z,98931.34
2019-02-27T14:31:25.325Z,98933.63
2019-02-27T14:33:55.038Z,98927.89
2019-02-27T14:36:24.726Z,98927.05
2019-02-27T14:38:56.602Z,98919.94
2019-02-27T14:41:25.549Z,98916.73
2019-02-27T14:43:57.607Z,98914.05
2019-02-27T14:46:26.548Z,98914.88
2019-02-27T14:48:56.185Z,98911.98
2019-02-27T14:51:25.969Z,98906.22
2019-02-27T14:53:55.938Z,98910.25
2019-02-27T14:56:25.461Z,98892.26
2019-02-27T14:58:56.579Z,98901.11
2019-02-27T15:01:27.047Z,98901.95
2019-02-27T15:03:56.616Z,98897.44
2019-02-27T15:06:26.017Z,98894.75
2019-02-27T15:08:58.165Z,98877.48
2019-02-27T15:11:26.638Z,98894.53
2019-02-27T15:13:56.220Z,98888.43
2019-02-27T15:16:26.070Z,98888.91
2019-02-27T15:18:55.972Z,98868.43
2019-02-27T15:21:26.083Z,98869.88
2019-02-27T15:23:58.130Z,98880.87
2019-02-27T15:26:28.872Z,98868.16
2019-02-27T15:28:58.332Z,98882.05
2019-02-27T15:31:27.713Z,98865.37
2019-02-27T15:33:57.066Z,98856.53
2019-02-27T15:36:29.317Z,98856.12
2019-02-27T15:38:57.746Z,98858.92
2019-02-27T15:41:27.118Z,98856.02
2019-02-27T15:44:00.230Z,98853.09
2019-02-27T15:46:29.729Z,98844.23
2019-02-27T15:49:00.413Z,98833.43
2019-02-27T15:51:32.331Z,98846.44
2019-02-27T15:54:01.661Z,98838.05
2019-02-27T15:56:31.164Z,98825.45
2019-02-27T15:59:05.167Z,98833.53
2019-02-27T16:01:33.140Z,98830.91
2019-02-27T16:04:02.659Z,98824.23
2019-02-27T16:06:32.094Z,98843.58
2019-02-27T16:09:01.538Z,98839.28
2019-02-27T16:11:31.048Z,98840.01
2019-02-27T16:14:00.734Z,98833.80
2019-02-27T16:16:30.143Z,98830.30
2019-02-27T16:18:59.548Z,98824.62
2019-02-27T16:21:29.111Z,98624.83
2019-02-27T16:23:59.426Z,98813.69
2019-02-27T16:26:29.591Z,98819.67
2019-02-27T16:28:59.302Z,98811.31
2019-02-27T16:31:28.923Z,98800.82
2019-02-27T16:33:59.484Z,98808.56
2019-02-27T16:36:36.218Z,98793.66
2019-02-27T16:39:06.946Z,98796.53
2019-02-27T16:41:33.549Z,98808.50
2019-02-27T16:44:03.425Z,98811.63
2019-02-27T16:46:32.855Z,98805.72
2019-02-27T16:49:02.462Z,98803.62
2019-02-27T16:51:34.682Z,98803.06
2019-02-27T16:54:03.453Z,98795.44
2019-02-27T16:56:32.859Z,98795.44
2019-02-27T16:59:07.482Z,98788.53
2019-02-27T17:01:33.819Z,98788.45
2019-02-27T17:04:03.323Z,98781.19
2019-02-27T17:06:32.712Z,98791.80
2019-02-27T17:09:02.083Z,98783.90
2019-02-27T17:11:32.493Z,98784.38
2019-02-27T17:14:02.752Z,98789.27
2019-02-27T17:16:32.348Z,98775.92
2019-02-27T17:19:02.781Z,98778.06
2019-02-27T17:21:32.154Z,98768.45
2019-02-27T17:24:01.614Z,98761.67
2019-02-27T17:26:31.039Z,98763.38
2019-02-27T17:29:00.393Z,98765.40
2019-02-27T17:31:29.838Z,98755.52
2019-02-27T17:33:59.270Z,98756.87
2019-02-27T17:36:31.681Z,98768.31
2019-02-27T17:39:00.090Z,98759.66
2019-02-27T17:41:29.559Z,98761.28
2019-02-27T17:44:03.820Z,98752.95
2019-02-27T17:46:30.974Z,98751.44
2019-02-27T17:49:00.404Z,98756.00
2019-02-27T17:51:31.217Z,98761.73
2019-02-27T17:54:00.677Z,98754.55
2019-02-27T17:56:30.640Z,98746.59
2019-02-27T17:59:01.277Z,98746.31
2019-02-27T18:01:31.678Z,98749.41
2019-02-27T18:04:01.259Z,98751.57
2019-02-27T18:06:34.768Z,98744.27
2019-02-27T18:09:02.342Z,98743.87
2019-02-27T18:11:32.313Z,98746.28
2019-02-27T18:14:02.421Z,98751.13
2019-02-27T18:16:31.914Z,98750.69
2019-02-27T18:19:01.417Z,98742.36
2019-02-27T18:21:33.850Z,98743.34
2019-02-27T18:24:02.235Z,98749.27
2019-02-27T18:26:31.789Z,98745.61
2019-02-27T18:29:04.319Z,98740.48
2019-02-27T18:31:32.486Z,98730.02
2019-02-27T18:34:03.031Z,98728.73
2019-02-27T18:36:32.508Z,98735.28
2019-02-27T18:39:02.631Z,98732.55
2019-02-27T18:41:32.353Z,98725.88
2019-02-27T18:44:04.784Z,98725.37
2019-02-27T18:46:32.955Z,98725.84
2019-02-27T18:49:02.497Z,98728.22
2019-02-27T18:51:33.247Z,98733.70
2019-02-27T18:54:03.233Z,98734.18
2019-02-27T18:56:34.159Z,98735.41
2019-02-27T18:59:03.966Z,98731.39
2019-02-27T19:01:33.546Z,98733.06
2019-02-27T19:04:03.080Z,98730.35
2019-02-27T19:06:32.855Z,98730.95
2019-02-27T19:09:04.030Z,98725.70
2019-02-27T19:11:33.463Z,98729.28
2019-02-27T19:14:05.834Z,98726.27
2019-02-27T19:16:34.638Z,98722.11
2019-02-27T19:19:04.389Z,98717.61
2019-02-27T19:21:34.056Z,98718.45
2019-02-27T19:24:03.624Z,98710.03
2019-02-27T19:26:33.137Z,98706.06
2019-02-27T19:29:02.864Z,98717.02
2019-02-27T19:31:32.229Z,98714.05
2019-02-27T19:34:01.693Z,98712.97
2019-02-27T19:36:31.501Z,98706.30
2019-02-27T19:39:01.026Z,98705.27
2019-02-27T19:41:30.414Z,98712.52
2019-02-27T19:43:59.883Z,98709.55
2019-02-27T19:46:29.366Z,98715.47
2019-02-27T19:49:00.873Z,98713.16
2019-02-27T19:51:30.623Z,98709.58
2019-02-27T19:54:00.834Z,98708.27
2019-02-27T19:56:32.281Z,98702.68
2019-02-27T19:59:01.376Z,98710.03
2019-02-27T20:01:30.823Z,98705.77
2019-02-27T20:04:00.462Z,98704.23
2019-02-27T20:06:30.117Z,98720.77
2019-02-27T20:09:00.080Z,98717.67
2019-02-27T20:11:30.395Z,98715.41
2019-02-27T20:14:02.497Z,98714.94
2019-02-27T20:16:31.034Z,98720.50
2019-02-27T20:19:00.579Z,98723.20
2019-02-27T20:21:30.816Z,98721.45
2019-02-27T20:24:01.528Z,98720.50
2019-02-27T20:26:32.187Z,98719.47
2019-02-27T20:29:09.221Z,98718.03
2019-02-27T20:31:38.784Z,98704.31
2019-02-27T20:34:10.709Z,98720.38
2019-02-27T20:36:39.397Z,98709.16
2019-02-27T20:39:09.722Z,98707.73
2019-02-27T20:41:40.937Z,98708.45
2019-02-27T20:44:10.703Z,98698.44
2019-02-27T20:46:40.180Z,98699.75
2019-02-27T20:49:14.024Z,98696.15
2019-02-27T20:51:43.978Z,98693.13
2019-02-27T20:54:13.347Z,98693.37
2019-02-27T20:56:43.152Z,98698.13
2019-02-27T20:59:12.602Z,98700.00
2019-02-27T21:01:46.772Z,98705.47
2019-02-27T21:04:13.246Z,98701.55
2019-02-27T21:06:47.242Z,98709.00
2019-02-27T21:09:13.992Z,98698.65
2019-02-27T21:11:43.396Z,98702.94
2019-02-27T21:14:13.639Z,98703.33
2019-02-27T21:16:45.621Z,98695.47
2019-02-27T21:19:14.505Z,98705.35
2019-02-27T21:21:44.421Z,98699.95
2019-02-27T21:24:13.935Z,98702.10
2019-02-27T21:26:43.288Z,98702.45
2019-02-27T21:29:13.082Z,98702.38
2019-02-27T21:31:42.482Z,98708.30
2019-02-27T21:34:12.027Z,98713.65
2019-02-27T21:36:41.500Z,98707.81
2019-02-27T21:39:10.976Z,98703.64
2019-02-27T21:41:45.159Z,98708.05
2019-02-27T21:44:12.430Z,98711.03
2019-02-27T21:46:46.137Z,98710.20
2019-02-27T21:49:13.155Z,98704.59
2019-02-27T21:51:42.525Z,98706.27
2019-02-27T21:54:11.997Z,98711.75
2019-02-27T21:56:41.464Z,98708.92
2019-02-27T21:59:10.844Z,98704.28
2019-02-27T22:01:40.287Z,98707.86
2019-02-27T22:04:10.834Z,98707.98
2019-02-27T22:06:40.703Z,98698.73
2019-02-27T22:09:13.187Z,98704.69
2019-02-27T22:11:41.148Z,98700.43
2019-02-27T22:14:10.655Z,98699.36
2019-02-27T22:16:42.048Z,98704.36
2019-02-27T22:19:11.908Z,98709.92
2019-02-27T22:21:41.316Z,98701.11
2019-02-27T22:24:10.673Z,98700.28
2019-02-27T22:26:40.842Z,98709.33
2019-02-27T22:29:10.661Z,98712.55
2019-02-27T22:31:42.283Z,98705.87
2019-02-27T22:34:11.624Z,98710.52
2019-02-27T22:36:44.039Z,98710.88
2019-02-27T22:39:12.122Z,98713.70
2019-02-27T22:41:41.750Z,98718.81
2019-02-27T22:44:11.147Z,98717.78
2019-02-27T22:46:40.505Z,98720.04
2019-02-27T22:49:10.711Z,98724.21
2019-02-27T22:51:40.067Z,98719.69
2019-02-27T22:54:09.478Z,98719.80
2019-02-27T22:56:39.034Z,98716.98
2019-02-27T22:59:08.251Z,98724.21
2019-02-27T23:01:49.261Z,98723.38
2019-02-27T23:04:15.581Z,98720.08
2019-02-27T23:06:47.248Z,98720.08
2019-02-27T23:09:17.761Z,98721.15
2019-02-27T23:11:47.185Z,98716.86
2019-02-27T23:14:18.888Z,98721.03
2019-02-27T23:16:49.185Z,98718.05
2019-02-27T23:19:18.601Z,98717.58
2019-02-27T23:21:48.014Z,98724.84
2019-02-27T23:24:17.592Z,98720.23
2019-02-27T23:26:48.067Z,98721.78
2019-02-27T23:29:17.930Z,98722.85
2019-02-27T23:31:47.304Z,98712.37
2019-02-27T23:34:16.957Z,98710.23
2019-02-27T23:36:46.357Z,98713.33
2019-02-27T23:39:15.945Z,98711.30
2019-02-27T23:41:45.284Z,98712.85
2019-02-27T23:44:14.856Z,98713.09
2019-02-27T23:46:49.593Z,98708.80
2019-02-27T23:49:16.060Z,98713.92
2019-02-27T23:51:47.731Z,98722.85
2019-02-27T23:54:16.620Z,98721.30
2019-02-27T23:56:45.992Z,98724.31
2019-02-27T23:59:15.407Z,98726.93
